Time;durP1;ratioP1;P1;durP2;ratioP2;P2;SDS_P1;SDS_P2;PMS_P1;PMS_P2;Temp;Humidity;BMP_temperature;BMP_pressure;BME280_temperature;BME280_humidity;BME280_pressure;Samples;Min_cycle;Max_cycle;Signal;HPM_P1;HPM_P2
2022/01/30 13:33:04;;;;;;;16.67;4.47;;;6.30;87.20;;;;;;5072372;28;20585;-81
2022/01/30 13:36:10;;;;;;;41.57;20.80;;;6.50;83.80;;;;;;5070810;28;20172;-80
2022/01/30 13:38:52;;;;;;;24.47;6.80;;;6.50;84.40;;;;;;5071231;28;20207;-80
2022/01/30 13:41:49;;;;;;;41.40;18.03;;;6.40;83.50;;;;;;5071490;28;20176;-80
2022/01/30 13:45:03;;;;;;;27.33;9.53;;;6.40;84.30;;;;;;5071656;28;20201;-80
2022/01/30 13:47:29;;;;;;;36.93;14.80;;;6.30;82.80;;;;;;5062129;28;20272;-79
2022/01/30 13:50:15;;;;;;;26.87;9.87;;;6.30;81.00;;;;;;5070289;28;20235;-79
2022/01/30 13:53:05;;;;;;;24.47;7.80;;;6.20;83.60;;;;;;5070869;28;20201;-79
2022/01/30 13:56:13;;;;;;;13.70;4.70;;;6.30;83.10;;;;;;5071689;28;20154;-79
2022/01/30 13:58:51;;;;;;;39.67;15.47;;;6.20;82.00;;;;;;5071842;28;20186;-80
2022/01/30 14:01:30;;;;;;;31.03;6.33;;;6.20;85.00;;;;;;5070508;28;20211;-81
2022/01/30 14:04:11;;;;;;;25.27;8.30;;;6.20;83.80;;;;;;5070337;28;20166;-80
2022/01/30 14:06:54;;;;;;;37.70;12.27;;;6.20;82.60;;;;;;5069512;28;20189;-80
2022/01/30 14:12:45;;;;;;;36.97;13.90;;;6.10;82.00;;;;;;5071062;28;20274;-81
2022/01/30 14:15:12;;;;;;;58.63;22.60;;;6.10;83.20;;;;;;5069035;28;20178;-81
2022/01/30 14:17:41;;;;;;;34.97;11.23;;;6.00;83.20;;;;;;5069130;28;20212;-81
2022/01/30 14:20:34;;;;;;;24.30;5.90;;;6.00;83.90;;;;;;5069906;28;20198;-81
2022/01/30 14:23:10;;;;;;;29.77;9.13;;;5.90;84.10;;;;;;5070725;28;20177;-82
2022/01/30 14:29:20;;;;;;;30.87;5.73;;;5.90;84.90;;;;;;5069946;28;20192;-81
2022/01/30 14:32:03;;;;;;;23.53;5.00;;;5.80;84.00;;;;;;5069622;28;20288;-81
2022/01/30 14:35:09;;;;;;;20.27;4.60;;;5.80;83.50;;;;;;5068393;28;20198;-81
2022/01/30 14:37:37;;;;;;;25.00;8.47;;;5.80;84.80;;;;;;5050139;28;20212;-80
2022/01/30 14:40:24;;;;;;;28.67;7.30;;;5.70;85.10;;;;;;5052659;28;20205;-81
2022/01/30 14:42:50;;;;;;;25.63;7.67;;;5.60;85.40;;;;;;5045229;28;20175;-82
2022/01/30 14:45:15;;;;;;;28.47;11.87;;;5.70;86.20;;;;;;5041593;28;20180;-81
2022/01/30 14:48:12;;;;;;;22.77;9.97;;;5.60;85.50;;;;;;5056313;28;20194;-80
2022/01/30 14:50:47;;;;;;;27.63;9.73;;;5.60;86.80;;;;;;5055164;28;20173;-80
2022/01/30 14:53:14;;;;;;;35.67;14.37;;;5.60;87.00;;;;;;5055837;28;20212;-81
2022/01/30 14:55:40;;;;;;;28.10;7.20;;;5.60;85.90;;;;;;5051453;28;20173;-81
2022/01/30 14:58:05;;;;;;;59.77;20.97;;;5.70;85.10;;;;;;5036913;28;20167;-81
2022/01/30 15:00:38;;;;;;;40.60;15.70;;;5.70;85.40;;;;;;5036410;28;20187;-80
2022/01/30 15:03:34;;;;;;;22.87;7.20;;;5.70;84.70;;;;;;5054993;28;20276;-81
2022/01/30 15:06:15;;;;;;;24.20;7.37;;;5.80;86.00;;;;;;5047680;28;20178;-82
2022/01/30 15:08:55;;;;;;;25.63;7.37;;;5.80;86.10;;;;;;5034823;28;20202;-83
2022/01/30 15:11:21;;;;;;;20.03;5.10;;;5.80;85.50;;;;;;5047818;28;20190;-83
2022/01/30 15:13:56;;;;;;;21.07;5.10;;;5.80;84.20;;;;;;5056091;28;20170;-83
2022/01/30 15:16:53;;;;;;;19.93;5.03;;;5.80;84.60;;;;;;5045388;28;20181;-81
2022/01/30 15:19:19;;;;;;;22.57;5.10;;;5.80;84.60;;;;;;5039095;28;20210;-82
2022/01/30 15:21:55;;;;;;;22.17;4.57;;;5.70;84.60;;;;;;5055254;28;20182;-81
2022/01/30 15:24:21;;;;;;;21.27;5.50;;;5.70;84.20;;;;;;5047691;28;20186;-81
2022/01/30 15:26:50;;;;;;;27.30;6.50;;;5.70;85.20;;;;;;5043344;28;20175;-81
2022/01/30 15:29:20;;;;;;;21.10;4.57;;;5.70;84.10;;;;;;5047147;28;20217;-81
2022/01/30 15:31:45;;;;;;;20.07;4.70;;;5.70;84.50;;;;;;5059573;28;20214;-81
2022/01/30 15:34:13;;;;;;;19.33;5.57;;;5.60;84.60;;;;;;5059348;28;20194;-80
2022/01/30 15:36:39;;;;;;;20.73;4.40;;;5.60;84.70;;;;;;5065197;28;20158;-80
2022/01/30 15:39:06;;;;;;;39.20;10.73;;;5.60;82.90;;;;;;5064784;28;20198;-81
2022/01/30 15:41:32;;;;;;;42.37;15.23;;;5.50;83.50;;;;;;5064169;28;20170;-80
2022/01/30 15:44:00;;;;;;;20.93;7.20;;;5.50;84.20;;;;;;5065779;28;20177;-80
2022/01/30 15:49:14;;;;;;;24.20;4.87;;;5.50;83.30;;;;;;5065369;28;20579;-79
2022/01/30 15:51:46;;;;;;;24.43;4.30;;;5.50;83.30;;;;;;5064453;28;20228;-79
2022/01/30 15:54:13;;;;;;;19.00;4.27;;;5.50;85.00;;;;;;5062004;28;20163;-80
2022/01/30 15:56:41;;;;;;;19.67;4.63;;;5.40;86.00;;;;;;5059675;28;20200;-80
2022/01/30 15:59:14;;;;;;;26.07;5.23;;;5.40;85.40;;;;;;5059594;28;20190;-80
2022/01/30 16:01:46;;;;;;;28.00;4.83;;;5.40;86.60;;;;;;5056628;28;20249;-80
2022/01/30 16:04:19;;;;;;;22.07;4.10;;;5.30;86.00;;;;;;5056666;28;20194;-80
2022/01/30 16:06:51;;;;;;;19.10;4.30;;;5.30;86.00;;;;;;5056306;28;20177;-80
2022/01/30 16:09:21;;;;;;;23.30;4.63;;;5.30;86.30;;;;;;5056467;28;20198;-80
2022/01/30 16:12:18;;;;;;;24.67;4.60;;;5.20;85.60;;;;;;5054841;28;20236;-80
2022/01/30 16:17:36;;;;;;;22.53;4.60;;;5.20;85.90;;;;;;5056617;28;20168;-80
2022/01/30 16:20:31;;;;;;;23.67;5.00;;;5.10;85.10;;;;;;5055048;28;20198;-80
2022/01/30 16:23:03;;;;;;;20.37;4.97;;;5.10;85.20;;;;;;5057267;28;20170;-80
2022/01/30 16:25:33;;;;;;;18.57;4.47;;;5.10;85.50;;;;;;5058498;28;20155;-80
2022/01/30 16:27:59;;;;;;;17.53;4.53;;;5.10;86.60;;;;;;5058290;28;20176;-80
2022/01/30 16:30:25;;;;;;;27.83;4.37;;;5.10;87.40;;;;;;5058284;28;20281;-80
2022/01/30 16:32:56;;;;;;;20.60;4.50;;;5.00;86.80;;;;;;5057898;28;20304;-80
2022/01/30 16:35:25;;;;;;;27.60;5.60;;;5.00;86.70;;;;;;5055582;28;20169;-81
2022/01/30 16:37:50;;;;;;;23.37;5.17;;;4.90;87.90;;;;;;5056793;28;20676;-81
2022/01/30 16:40:26;;;;;;;30.63;5.20;;;4.80;87.00;;;;;;5056573;28;20345;-81
2022/01/30 16:42:55;;;;;;;20.13;4.57;;;4.80;88.40;;;;;;5056924;28;20579;-82
2022/01/30 16:45:27;;;;;;;20.63;4.57;;;4.80;87.50;;;;;;5058108;28;20208;-81
2022/01/30 16:48:03;;;;;;;19.53;4.63;;;4.80;87.40;;;;;;5055779;28;20254;-81
2022/01/30 16:50:30;;;;;;;53.37;19.40;;;4.90;86.70;;;;;;5055497;28;20197;-81
2022/01/30 16:52:57;;;;;;;29.23;8.77;;;4.90;86.80;;;;;;5055161;28;20555;-81
2022/01/30 16:55:47;;;;;;;19.03;5.43;;;4.90;87.60;;;;;;5054978;28;20182;-82
2022/01/30 16:58:17;;;;;;;29.67;5.37;;;4.90;88.40;;;;;;5055700;28;20614;-80
2022/01/30 17:00:43;;;;;;;19.17;5.47;;;4.90;87.60;;;;;;5057725;28;20178;-80
2022/01/30 17:03:08;;;;;;;27.00;6.70;;;4.90;88.90;;;;;;5056554;28;20187;-80
2022/01/30 17:05:34;;;;;;;46.97;17.70;;;4.90;87.10;;;;;;5052630;28;20188;-80
2022/01/30 17:08:08;;;;;;;42.97;18.70;;;5.00;86.60;;;;;;5053816;28;20186;-81
2022/01/30 17:10:44;;;;;;;31.93;11.17;;;5.00;85.80;;;;;;5054177;28;20598;-81
2022/01/30 17:13:16;;;;;;;23.07;6.80;;;4.90;85.10;;;;;;5053963;28;20185;-80
2022/01/30 17:15:57;;;;;;;25.47;5.93;;;5.00;85.60;;;;;;5053834;28;20289;-82
2022/01/30 17:18:23;;;;;;;17.97;5.47;;;5.00;84.50;;;;;;5055259;28;20170;-80
2022/01/30 17:20:50;;;;;;;24.20;5.67;;;5.00;85.30;;;;;;5054891;28;20174;-82
2022/01/30 17:23:21;;;;;;;18.53;5.90;;;5.00;85.80;;;;;;5053936;28;20265;-81
2022/01/30 17:25:50;;;;;;;22.93;6.10;;;5.00;86.50;;;;;;5055040;28;20173;-81
2022/01/30 17:28:16;;;;;;;25.03;6.07;;;5.00;86.60;;;;;;5055434;28;20178;-81
2022/01/30 17:30:42;;;;;;;25.77;5.73;;;5.00;86.60;;;;;;5056362;28;20179;-80
2022/01/30 17:33:08;;;;;;;22.33;4.97;;;5.00;86.40;;;;;;5056376;28;20253;-79
2022/01/30 17:35:35;;;;;;;22.93;4.90;;;5.00;87.20;;;;;;5055464;28;20189;-80
2022/01/30 17:38:02;;;;;;;24.93;5.10;;;5.00;85.80;;;;;;5054861;28;20170;-81
2022/01/30 17:40:28;;;;;;;30.53;4.87;;;4.90;84.40;;;;;;5053991;28;20198;-80
2022/01/30 17:42:56;;;;;;;22.93;4.67;;;4.90;83.60;;;;;;5052337;28;20246;-80
2022/01/30 17:45:27;;;;;;;24.43;5.30;;;4.90;82.00;;;;;;5052139;28;20193;-81
2022/01/30 17:47:57;;;;;;;24.90;4.73;;;4.80;81.90;;;;;;5052647;28;20182;-80
2022/01/30 17:50:29;;;;;;;20.37;4.47;;;4.80;81.60;;;;;;5054591;28;20661;-82
2022/01/30 17:52:59;;;;;;;23.73;5.37;;;4.80;81.50;;;;;;5052169;28;20304;-80
2022/01/30 17:55:37;;;;;;;23.07;5.43;;;4.80;82.40;;;;;;5052448;28;20273;-83
2022/01/30 17:58:33;;;;;;;23.30;5.00;;;4.70;83.90;;;;;;5054787;28;20166;-80
2022/01/30 18:00:58;;;;;;;16.97;4.07;;;4.80;84.30;;;;;;5054008;28;20187;-81
2022/01/30 18:03:26;;;;;;;26.67;5.87;;;4.80;83.80;;;;;;5052949;28;20205;-79
2022/01/30 18:05:54;;;;;;;25.20;5.23;;;4.70;84.00;;;;;;5052801;28;20170;-84
2022/01/30 18:08:22;;;;;;;20.03;4.90;;;4.70;85.20;;;;;;5052450;28;20182;-81
2022/01/30 18:10:52;;;;;;;27.27;5.10;;;4.70;84.00;;;;;;5052565;28;20309;-81
2022/01/30 18:13:17;;;;;;;27.20;5.80;;;4.70;83.90;;;;;;5052986;28;20204;-81
2022/01/30 18:15:56;;;;;;;23.13;5.50;;;4.70;83.60;;;;;;5051946;28;20264;-81
2022/01/30 18:18:33;;;;;;;29.63;8.53;;;4.70;83.20;;;;;;5053020;28;20169;-81
2022/01/30 18:20:59;;;;;;;19.83;4.83;;;4.70;83.70;;;;;;5055897;28;20181;-81
2022/01/30 18:23:25;;;;;;;27.60;6.30;;;4.60;83.40;;;;;;5057051;28;20174;-81
2022/01/30 18:25:51;;;;;;;25.80;5.60;;;4.60;83.50;;;;;;5056049;28;20184;-81
2022/01/30 18:28:17;;;;;;;25.53;5.20;;;4.60;83.20;;;;;;5055811;28;20572;-81
2022/01/30 18:30:42;;;;;;;28.10;5.67;;;4.60;82.90;;;;;;5055358;28;20177;-80
2022/01/30 18:33:08;;;;;;;30.43;5.33;;;4.60;82.00;;;;;;5055541;28;20700;-81
2022/01/30 18:35:40;;;;;;;22.40;4.87;;;4.50;81.20;;;;;;5056340;28;20175;-81
2022/01/30 18:38:27;;;;;;;28.47;5.10;;;4.50;82.00;;;;;;5055408;28;20163;-81
2022/01/30 18:41:30;;;;;;;32.87;5.23;;;4.50;83.50;;;;;;5056592;28;20261;-81
2022/01/30 18:44:09;;;;;;;23.87;5.50;;;4.50;83.80;;;;;;5055363;28;20182;-81
2022/01/30 18:47:12;;;;;;;21.87;7.83;;;4.40;82.20;;;;;;5056824;28;20167;-81
2022/01/30 18:49:38;;;;;;;21.33;5.63;;;4.30;82.70;;;;;;5055565;28;20201;-81
2022/01/30 18:52:05;;;;;;;22.50;7.03;;;4.40;83.80;;;;;;5055491;28;20210;-80
2022/01/30 18:54:35;;;;;;;23.40;5.87;;;4.40;84.70;;;;;;5056337;28;20182;-81
2022/01/30 18:57:04;;;;;;;26.20;5.87;;;4.40;84.70;;;;;;5056292;28;20217;-80
2022/01/30 18:59:35;;;;;;;18.70;4.37;;;4.40;83.90;;;;;;5056953;28;20672;-79
2022/01/30 19:02:32;;;;;;;24.43;6.10;;;4.40;83.80;;;;;;5056185;28;20277;-79
2022/01/30 19:05:26;;;;;;;23.47;5.77;;;4.40;83.50;;;;;;5053898;28;20204;-80
2022/01/30 19:07:52;;;;;;;19.13;4.67;;;4.40;83.80;;;;;;5054703;28;20244;-79
2022/01/30 19:10:17;;;;;;;25.07;5.23;;;4.40;82.80;;;;;;5055452;28;20225;-80
2022/01/30 19:12:43;;;;;;;28.57;6.33;;;4.40;84.60;;;;;;5054316;28;20214;-80
2022/01/30 19:15:09;;;;;;;32.63;7.17;;;4.50;86.20;;;;;;5055483;28;20228;-82
2022/01/30 19:17:40;;;;;;;18.70;4.90;;;4.50;84.30;;;;;;5054684;28;20178;-80
2022/01/30 19:20:06;;;;;;;24.47;9.13;;;4.50;84.90;;;;;;5054659;28;20194;-82
2022/01/30 19:22:31;;;;;;;24.83;7.33;;;4.50;85.20;;;;;;5056769;28;20236;-81
2022/01/30 19:24:59;;;;;;;31.17;8.30;;;4.50;85.50;;;;;;5054901;28;20178;-81
2022/01/30 19:27:24;;;;;;;26.00;9.60;;;4.60;86.40;;;;;;5055212;28;20186;-81
2022/01/30 19:29:53;;;;;;;26.83;8.57;;;4.60;86.40;;;;;;5054909;28;20316;-81
2022/01/30 19:32:25;;;;;;;20.90;5.90;;;4.60;86.70;;;;;;5055971;28;20237;-81
2022/01/30 19:34:50;;;;;;;29.53;5.80;;;4.60;85.50;;;;;;5055232;28;20178;-81
2022/01/30 19:37:31;;;;;;;25.47;6.20;;;4.50;86.20;;;;;;5054479;28;20269;-81
2022/01/30 19:40:05;;;;;;;21.60;4.90;;;4.50;86.60;;;;;;5055022;28;20201;-80
2022/01/30 19:42:44;;;;;;;28.37;6.67;;;4.50;86.50;;;;;;5055435;28;20170;-80
2022/01/30 19:45:18;;;;;;;24.10;6.73;;;4.40;86.10;;;;;;5055264;28;20170;-80
2022/01/30 19:47:51;;;;;;;25.47;6.53;;;4.30;85.40;;;;;;5055721;28;20228;-80
2022/01/30 19:50:17;;;;;;;21.97;5.93;;;4.30;87.80;;;;;;5054688;28;20210;-80
2022/01/30 19:52:48;;;;;;;25.80;6.03;;;4.20;87.10;;;;;;5054954;28;20681;-80
2022/01/30 19:55:14;;;;;;;32.07;6.50;;;4.20;88.10;;;;;;5054856;28;20220;-81
2022/01/30 19:57:40;;;;;;;22.40;5.23;;;4.20;88.70;;;;;;5055074;28;20216;-81
2022/01/30 20:00:19;;;;;;;23.00;6.03;;;4.30;88.30;;;;;;5054621;28;20198;-80
2022/01/30 20:02:46;;;;;;;25.57;6.20;;;4.30;88.30;;;;;;5053984;28;20174;-81
2022/01/30 20:05:13;;;;;;;23.17;5.47;;;4.20;88.30;;;;;;5055038;28;20182;-80
2022/01/30 20:07:53;;;;;;;25.63;5.80;;;4.20;88.40;;;;;;5056216;28;20182;-80
2022/01/30 20:10:19;;;;;;;24.07;5.50;;;4.20;88.80;;;;;;5054036;28;20202;-81
2022/01/30 20:12:44;;;;;;;23.23;6.63;;;4.20;89.20;;;;;;5054023;28;20216;-80
2022/01/30 20:15:10;;;;;;;22.70;6.43;;;4.20;89.70;;;;;;5057050;28;20201;-80
2022/01/30 20:17:36;;;;;;;23.43;5.03;;;4.10;90.10;;;;;;5055154;28;20210;-80
2022/01/30 20:20:06;;;;;;;22.17;5.20;;;4.00;90.10;;;;;;5054202;28;20197;-80
2022/01/30 20:22:34;;;;;;;27.43;6.10;;;4.00;90.40;;;;;;5054042;28;20178;-82
2022/01/30 20:24:59;;;;;;;17.90;5.00;;;4.00;90.40;;;;;;5053301;28;20614;-81
2022/01/30 20:27:30;;;;;;;18.90;5.13;;;4.00;90.50;;;;;;5053751;28;20182;-80
2022/01/30 20:29:56;;;;;;;27.27;5.07;;;4.10;90.80;;;;;;5053442;28;20198;-80
2022/01/30 20:32:22;;;;;;;22.77;4.97;;;4.10;90.50;;;;;;5053815;28;20213;-81
2022/01/30 20:34:48;;;;;;;21.90;4.83;;;4.20;90.50;;;;;;5054544;28;20177;-81
2022/01/30 20:37:53;;;;;;;22.07;5.37;;;4.10;90.70;;;;;;5054503;28;20171;-81
2022/01/30 20:40:18;;;;;;;22.97;5.33;;;4.00;90.90;;;;;;5052833;28;20225;-81
2022/01/30 20:42:44;;;;;;;27.27;5.17;;;4.00;91.10;;;;;;5053987;28;20185;-81
2022/01/30 20:45:11;;;;;;;19.67;4.83;;;3.90;91.40;;;;;;5052942;28;20178;-81
2022/01/30 20:47:39;;;;;;;19.80;4.83;;;3.80;91.90;;;;;;5052638;28;20185;-81
2022/01/30 20:50:05;;;;;;;18.47;4.97;;;3.70;92.00;;;;;;5053057;28;20210;-81
2022/01/30 20:52:31;;;;;;;26.00;6.03;;;3.60;91.90;;;;;;5053913;28;20673;-80
2022/01/30 20:54:56;;;;;;;23.30;5.47;;;3.60;92.10;;;;;;5053182;28;20185;-81
2022/01/30 20:57:22;;;;;;;16.53;4.63;;;3.60;92.50;;;;;;5052994;28;20221;-81
2022/01/30 20:59:49;;;;;;;17.23;4.37;;;3.70;92.70;;;;;;5052784;28;20725;-81
2022/01/30 21:02:15;;;;;;;22.20;5.13;;;3.70;92.40;;;;;;5051977;28;20182;-81
2022/01/30 21:04:41;;;;;;;16.60;4.97;;;3.80;92.40;;;;;;5051942;28;20183;-81
2022/01/30 21:07:06;;;;;;;26.23;5.20;;;3.70;92.40;;;;;;5052241;28;20185;-81
2022/01/30 21:09:33;;;;;;;23.67;5.53;;;3.70;92.80;;;;;;5052148;28;20251;-81
2022/01/30 21:12:00;;;;;;;21.60;5.47;;;3.70;92.70;;;;;;5051998;28;20212;-83
2022/01/30 21:14:25;;;;;;;22.23;5.50;;;3.60;92.80;;;;;;5052895;28;20178;-80
2022/01/30 21:16:51;;;;;;;18.90;5.63;;;3.60;93.00;;;;;;5052720;28;20247;-80
2022/01/30 21:19:17;;;;;;;25.40;5.40;;;3.60;93.20;;;;;;5052277;28;20197;-81
2022/01/30 21:21:43;;;;;;;17.77;4.63;;;3.60;93.20;;;;;;5051791;28;20599;-81
2022/01/30 21:24:09;;;;;;;26.17;6.37;;;3.50;93.40;;;;;;5051904;28;20706;-80
2022/01/30 21:26:36;;;;;;;23.20;5.67;;;3.40;93.70;;;;;;5051990;28;20239;-80
2022/01/30 21:29:04;;;;;;;25.87;6.13;;;3.30;93.80;;;;;;5051259;28;20198;-81
2022/01/30 21:31:30;;;;;;;24.93;5.30;;;3.20;94.00;;;;;;5051859;28;20213;-81
2022/01/30 21:33:56;;;;;;;19.57;4.90;;;3.20;94.20;;;;;;5051491;28;20178;-81
2022/01/30 21:36:22;;;;;;;22.50;6.00;;;3.20;94.50;;;;;;5051697;28;20185;-80
2022/01/30 21:38:56;;;;;;;25.60;5.50;;;3.20;94.40;;;;;;5051674;28;20200;-81
2022/01/30 21:41:21;;;;;;;22.20;4.63;;;3.20;94.00;;;;;;5051462;28;20202;-81
2022/01/30 21:43:47;;;;;;;30.33;5.40;;;3.20;93.90;;;;;;5051161;28;20186;-81
2022/01/30 21:46:12;;;;;;;22.50;5.30;;;3.30;93.90;;;;;;5052980;28;20184;-81
2022/01/30 21:52:07;;;;;;;18.13;5.03;;;3.20;93.60;;;;;;5053032;28;20304;-81
2022/01/30 21:54:32;;;;;;;21.97;5.27;;;3.30;93.40;;;;;;5055597;28;20217;-81
2022/01/30 21:56:58;;;;;;;13.93;5.10;;;3.40;93.30;;;;;;5056256;28;20181;-81
2022/01/30 21:59:26;;;;;;;21.87;5.43;;;3.30;93.10;;;;;;5055933;28;20588;-81
2022/01/30 22:01:52;;;;;;;21.70;5.53;;;3.30;93.30;;;;;;5056279;28;20257;-81
2022/01/30 22:04:18;;;;;;;22.37;5.83;;;3.30;93.30;;;;;;5055891;28;20189;-81
2022/01/30 22:06:43;;;;;;;24.67;5.60;;;3.30;93.50;;;;;;5056261;28;20182;-80
2022/01/30 22:09:09;;;;;;;29.77;5.63;;;3.30;93.60;;;;;;5055594;28;20331;-83
2022/01/30 22:11:39;;;;;;;20.60;5.47;;;3.30;93.70;;;;;;5055535;28;20221;-82
2022/01/30 22:14:14;;;;;;;31.47;6.37;;;3.40;93.40;;;;;;5055692;28;20171;-82
2022/01/30 22:16:42;;;;;;;22.23;5.70;;;3.40;93.00;;;;;;5056525;28;20166;-81
2022/01/30 22:19:08;;;;;;;17.77;5.40;;;3.40;93.20;;;;;;5056168;28;20202;-81
2022/01/30 22:21:33;;;;;;;23.03;6.27;;;3.50;93.20;;;;;;5056952;28;20205;-81
2022/01/30 22:23:59;;;;;;;18.07;5.67;;;3.60;93.20;;;;;;5056722;28;20205;-81
2022/01/30 22:26:24;;;;;;;23.60;5.20;;;3.60;93.10;;;;;;5055457;28;20182;-81
2022/01/30 22:28:50;;;;;;;19.40;5.73;;;3.60;93.30;;;;;;5055978;28;20677;-81
2022/01/30 22:31:16;;;;;;;22.37;5.40;;;3.60;92.80;;;;;;5054976;28;20210;-81
2022/01/30 22:33:41;;;;;;;21.37;5.73;;;3.60;92.70;;;;;;5055624;28;20248;-81
2022/01/30 22:36:23;;;;;;;24.07;5.37;;;3.60;92.50;;;;;;5055269;28;20166;-81
2022/01/30 22:38:49;;;;;;;17.87;5.30;;;3.60;92.30;;;;;;5055929;28;20208;-81
2022/01/30 22:41:15;;;;;;;22.97;5.33;;;3.60;92.40;;;;;;5055951;28;20273;-80
2022/01/30 22:43:40;;;;;;;21.57;5.97;;;3.50;92.70;;;;;;5056214;28;20618;-81
2022/01/30 22:46:06;;;;;;;24.10;6.47;;;3.50;93.10;;;;;;5056276;28;20555;-81
2022/01/30 22:48:31;;;;;;;16.23;5.50;;;3.50;93.10;;;;;;5054930;28;20205;-81
2022/01/30 22:50:57;;;;;;;24.60;5.30;;;3.40;93.20;;;;;;5055195;28;20245;-81
2022/01/30 22:53:22;;;;;;;21.37;5.07;;;3.50;93.20;;;;;;5055223;28;20174;-81
2022/01/30 22:55:48;;;;;;;18.83;4.97;;;3.50;93.50;;;;;;5054922;28;20174;-80
2022/01/30 22:58:15;;;;;;;23.33;5.80;;;3.50;93.10;;;;;;5055025;28;20182;-80
2022/01/30 23:00:40;;;;;;;21.93;4.97;;;3.50;93.30;;;;;;5055207;28;20179;-80
2022/01/30 23:03:06;;;;;;;23.33;5.63;;;3.60;93.30;;;;;;5055082;28;20192;-80
2022/01/30 23:05:31;;;;;;;24.73;5.77;;;3.60;93.50;;;;;;5054491;28;20182;-80
2022/01/30 23:07:57;;;;;;;24.53;6.00;;;3.60;93.30;;;;;;5054752;28;20178;-80
2022/01/30 23:10:24;;;;;;;26.73;5.33;;;3.70;92.90;;;;;;5054481;28;20205;-80
2022/01/30 23:12:50;;;;;;;20.20;5.73;;;3.70;92.70;;;;;;5054529;28;20273;-80
2022/01/30 23:15:16;;;;;;;25.17;5.47;;;3.80;92.40;;;;;;5054468;28;20265;-80
2022/01/30 23:17:42;;;;;;;21.97;5.53;;;3.70;92.30;;;;;;5054469;28;20227;-80
2022/01/30 23:20:09;;;;;;;20.40;5.47;;;3.70;92.40;;;;;;5054633;28;20225;-80
2022/01/30 23:22:34;;;;;;;20.50;5.33;;;3.70;92.20;;;;;;5055633;28;20178;-80
2022/01/30 23:25:00;;;;;;;24.30;5.30;;;3.70;92.50;;;;;;5054321;28;20182;-81
2022/01/30 23:27:29;;;;;;;21.27;5.70;;;3.70;92.60;;;;;;5055050;28;20181;-81
2022/01/30 23:29:56;;;;;;;27.17;5.93;;;3.70;92.40;;;;;;5054402;28;20249;-80
2022/01/30 23:32:24;;;;;;;34.73;5.80;;;3.60;92.40;;;;;;5054200;28;20213;-80
2022/01/30 23:34:49;;;;;;;25.80;5.80;;;3.60;92.80;;;;;;5054068;28;20228;-80
2022/01/30 23:37:15;;;;;;;26.13;5.57;;;3.70;92.70;;;;;;5054385;28;20186;-80
2022/01/30 23:39:41;;;;;;;17.40;5.13;;;3.70;92.70;;;;;;5055481;28;20194;-80
2022/01/30 23:42:13;;;;;;;28.10;6.73;;;3.70;92.90;;;;;;5055177;28;20637;-80
2022/01/30 23:44:44;;;;;;;31.33;6.27;;;3.70;92.70;;;;;;5054996;28;20179;-80
2022/01/30 23:47:11;;;;;;;24.40;5.90;;;3.80;92.60;;;;;;5054770;28;20197;-80
2022/01/30 23:49:37;;;;;;;19.47;4.90;;;3.90;92.50;;;;;;5054635;28;20205;-80
2022/01/30 23:52:03;;;;;;;24.13;5.83;;;3.70;92.10;;;;;;5054544;28;20209;-80
2022/01/30 23:54:28;;;;;;;24.93;5.47;;;3.70;92.50;;;;;;5054838;28;20181;-80
2022/01/30 23:56:57;;;;;;;21.00;5.53;;;3.70;93.10;;;;;;5054836;28;20257;-80
2022/01/30 23:59:23;;;;;;;17.47;5.13;;;3.70;93.40;;;;;;5053874;28;20198;-80
